createdAt,value
2023-06-29T00:00:12.786Z,3.45
2023-06-29T00:02:43.207Z,3.47
2023-06-29T00:05:13.316Z,3.60
2023-06-29T00:07:42.342Z,3.83
2023-06-29T00:10:12.486Z,3.60
2023-06-29T00:12:43.485Z,3.50
2023-06-29T00:15:13.619Z,3.97
2023-06-29T00:17:42.218Z,3.20
2023-06-29T00:20:12.604Z,3.30
2023-06-29T00:22:42.183Z,3.63
2023-06-29T00:25:12.208Z,3.95
2023-06-29T00:27:40.692Z,3.60
2023-06-29T00:30:10.621Z,3.30
2023-06-29T00:32:40.542Z,3.67
2023-06-29T00:35:10.157Z,3.60
2023-06-29T00:37:38.713Z,3.70
2023-06-29T00:40:09.432Z,3.30
2023-06-29T00:42:38.273Z,3.35
2023-06-29T00:45:08.498Z,3.70
2023-06-29T00:47:37.607Z,3.67
2023-06-29T00:50:09.858Z,3.72
2023-06-29T00:52:38.971Z,3.63
2023-06-29T00:55:08.604Z,3.65
2023-06-29T00:57:37.243Z,3.60
2023-06-29T01:00:11.758Z,3.28
2023-06-29T01:02:42.949Z,3.65
2023-06-29T01:05:15.419Z,3.37
2023-06-29T01:07:52.404Z,3.80
2023-06-29T01:10:26.026Z,3.70
2023-06-29T01:12:56.148Z,3.58
2023-06-29T01:15:25.303Z,4.00
2023-06-29T01:17:57.986Z,3.50
2023-06-29T01:20:28.630Z,3.85
2023-06-29T01:23:01.678Z,3.80
2023-06-29T01:25:34.175Z,3.45
2023-06-29T01:28:08.369Z,3.95
2023-06-29T01:30:40.962Z,3.93
2023-06-29T01:33:10.767Z,4.20
2023-06-29T01:35:39.585Z,4.20
2023-06-29T01:38:13.451Z,3.60
2023-06-29T01:40:46.204Z,3.58
2023-06-29T01:43:15.990Z,3.40
2023-06-29T01:45:45.469Z,3.53
2023-06-29T01:48:14.792Z,3.63
2023-06-29T01:50:43.736Z,3.53
2023-06-29T01:53:12.883Z,3.97
2023-06-29T01:55:43.661Z,3.37
2023-06-29T01:58:12.306Z,4.07
2023-06-29T02:00:40.830Z,4.05
2023-06-29T02:03:09.488Z,4.28
2023-06-29T02:05:38.029Z,4.00
2023-06-29T02:08:07.021Z,3.63
2023-06-29T02:10:35.576Z,3.50
2023-06-29T02:13:05.664Z,4.03
2023-06-29T02:15:34.175Z,3.70
2023-06-29T02:18:02.866Z,4.47
2023-06-29T02:20:31.384Z,3.70
2023-06-29T02:22:59.872Z,3.75
2023-06-29T02:25:28.354Z,3.67
2023-06-29T02:27:56.878Z,4.10
2023-06-29T02:30:26.787Z,4.40
2023-06-29T02:32:55.284Z,3.90
2023-06-29T02:35:24.058Z,4.07
2023-06-29T02:37:52.552Z,4.38
2023-06-29T02:40:21.477Z,3.53
2023-06-29T02:42:49.960Z,4.15
2023-06-29T02:45:18.568Z,3.73
2023-06-29T02:47:48.696Z,4.40
2023-06-29T02:50:17.388Z,4.40
2023-06-29T02:52:46.110Z,4.57
2023-06-29T02:55:14.885Z,4.13
2023-06-29T02:57:43.735Z,3.60
2023-06-29T03:00:13.793Z,4.38
2023-06-29T03:02:42.515Z,4.10
2023-06-29T03:05:12.764Z,3.95
2023-06-29T03:07:41.289Z,4.38
2023-06-29T03:10:10.796Z,4.03
2023-06-29T03:12:39.322Z,4.32
2023-06-29T03:15:09.139Z,4.10
2023-06-29T03:17:37.796Z,4.22
2023-06-29T03:20:07.839Z,4.43
2023-06-29T03:22:37.705Z,3.90
2023-06-29T03:25:08.874Z,4.60
2023-06-29T03:27:38.234Z,4.47
2023-06-29T03:30:09.936Z,4.30
2023-06-29T03:32:38.507Z,4.25
2023-06-29T03:35:08.764Z,3.80
2023-06-29T03:37:38.700Z,3.90
2023-06-29T03:40:09.414Z,4.22
2023-06-29T03:42:38.122Z,4.57
2023-06-29T03:45:08.427Z,4.43
2023-06-29T03:47:37.004Z,3.90
2023-06-29T03:50:06.384Z,4.72
2023-06-29T03:52:35.120Z,4.68
2023-06-29T03:55:05.695Z,4.00
2023-06-29T03:57:34.177Z,4.10
2023-06-29T04:00:04.173Z,3.90
2023-06-29T04:02:32.704Z,4.72
2023-06-29T04:05:01.259Z,5.07
2023-06-29T04:07:29.779Z,4.35
2023-06-29T04:09:58.332Z,4.63
2023-06-29T04:12:28.181Z,4.37
2023-06-29T04:14:56.713Z,4.00
2023-06-29T04:17:25.461Z,4.22
2023-06-29T04:19:54.270Z,4.50
2023-06-29T04:22:22.773Z,4.68
2023-06-29T04:24:51.501Z,3.90
2023-06-29T04:27:20.099Z,4.43
2023-06-29T04:29:49.990Z,4.50
2023-06-29T04:32:18.581Z,4.40
2023-06-29T04:34:48.966Z,4.50
2023-06-29T04:37:17.685Z,5.00
2023-06-29T04:39:46.446Z,4.60
2023-06-29T04:42:18.144Z,4.70
2023-06-29T04:44:46.647Z,4.15
2023-06-29T04:47:16.796Z,4.55
2023-06-29T04:49:52.537Z,4.83
2023-06-29T04:52:21.406Z,4.60
2023-06-29T04:54:49.867Z,5.18
2023-06-29T04:57:18.862Z,4.68
2023-06-29T04:59:47.334Z,5.38
2023-06-29T05:02:17.242Z,5.27
2023-06-29T05:04:45.749Z,4.70
2023-06-29T05:07:14.356Z,5.30
2023-06-29T05:09:42.855Z,5.20
2023-06-29T05:12:12.656Z,5.28
2023-06-29T05:14:41.155Z,5.37
2023-06-29T05:17:09.959Z,4.63
2023-06-29T05:19:40.908Z,4.75
2023-06-29T05:22:09.554Z,4.50
2023-06-29T05:24:38.725Z,4.80
2023-06-29T05:27:08.550Z,4.77
2023-06-29T05:29:37.853Z,4.53
2023-06-29T05:32:07.685Z,4.85
2023-06-29T05:34:37.029Z,4.47
2023-06-29T05:37:07.264Z,5.30
2023-06-29T05:39:35.764Z,4.50
2023-06-29T05:42:04.567Z,4.90
2023-06-29T05:44:33.079Z,5.20
2023-06-29T05:47:02.816Z,5.75
2023-06-29T05:49:31.311Z,4.90
2023-06-29T05:51:59.797Z,5.20
2023-06-29T05:54:29.653Z,5.55
2023-06-29T05:56:58.143Z,5.72
2023-06-29T05:59:26.633Z,5.38
2023-06-29T06:01:55.624Z,5.75
2023-06-29T06:04:24.235Z,5.27
2023-06-29T06:06:53.132Z,5.80
2023-06-29T06:09:21.662Z,5.43
2023-06-29T06:11:51.551Z,4.93
2023-06-29T06:14:20.069Z,5.15
2023-06-29T06:16:48.617Z,4.77
2023-06-29T06:19:17.111Z,4.43
2023-06-29T06:21:45.638Z,4.55
2023-06-29T06:24:14.147Z,3.90
2023-06-29T06:26:42.629Z,4.45
2023-06-29T06:29:12.514Z,4.20
2023-06-29T06:31:41.329Z,4.60
2023-06-29T06:34:09.894Z,4.38
2023-06-29T06:36:38.493Z,4.32
2023-06-29T06:39:07.351Z,4.00
2023-06-29T06:41:35.829Z,4.30
2023-06-29T06:44:04.531Z,4.22
2023-06-29T06:46:34.464Z,3.83
2023-06-29T06:49:03.365Z,4.00
2023-06-29T06:51:31.863Z,4.40
2023-06-29T06:54:00.375Z,4.00
2023-06-29T06:58:57.499Z,4.45
2023-06-29T07:01:26.067Z,4.40
2023-06-29T07:03:56.011Z,4.35
2023-06-29T07:06:24.805Z,3.73
2023-06-29T07:08:53.319Z,3.75
2023-06-29T07:11:21.801Z,3.50
2023-06-29T07:13:50.282Z,3.58
2023-06-29T07:16:18.887Z,3.50
2023-06-29T07:21:37.062Z,2.92
2023-06-29T07:24:08.177Z,3.10
2023-06-29T07:26:37.580Z,2.97
2023-06-29T07:29:07.511Z,2.95
2023-06-29T07:31:36.487Z,2.77
2023-06-29T07:34:06.465Z,2.50
2023-06-29T07:36:35.615Z,2.40
2023-06-29T07:39:04.346Z,2.72
2023-06-29T07:41:33.813Z,2.20
2023-06-29T07:44:02.588Z,2.50
2023-06-29T07:46:33.213Z,2.20
2023-06-29T07:49:01.904Z,2.33
2023-06-29T07:51:34.121Z,2.10
2023-06-29T07:54:03.547Z,2.30
2023-06-29T07:59:03.772Z,2.10
2023-06-29T08:01:32.429Z,2.30
2023-06-29T08:04:03.828Z,2.30
2023-06-29T08:09:06.453Z,2.20
2023-06-29T08:11:35.023Z,2.42
2023-06-29T08:14:03.761Z,2.40
2023-06-29T08:16:32.348Z,2.58
2023-06-29T08:19:01.681Z,2.40
2023-06-29T08:21:30.366Z,2.50
2023-06-29T08:24:00.866Z,2.40
2023-06-29T08:26:30.001Z,2.70
2023-06-29T08:28:58.512Z,2.80
2023-06-29T08:31:27.369Z,2.95
2023-06-29T08:33:56.045Z,2.87
2023-06-29T08:36:24.621Z,3.25
2023-06-29T08:38:53.102Z,3.35
2023-06-29T08:41:23.124Z,3.00
2023-06-29T08:43:51.693Z,3.25
2023-06-29T08:46:20.455Z,3.43
2023-06-29T08:48:49.731Z,3.60
2023-06-29T08:51:20.797Z,3.50
2023-06-29T08:53:52.169Z,3.25
2023-06-29T08:56:24.770Z,3.60
2023-06-29T08:58:54.905Z,3.50
2023-06-29T09:01:23.767Z,3.15
2023-06-29T09:03:54.203Z,3.45
2023-06-29T09:06:26.278Z,3.60
2023-06-29T09:08:56.685Z,3.60
2023-06-29T09:11:26.607Z,3.80
2023-06-29T09:13:55.757Z,3.92
2023-06-29T09:16:31.206Z,4.63
2023-06-29T09:19:55.332Z,3.97
2023-06-29T09:22:31.648Z,4.70
2023-06-29T09:25:10.284Z,4.50
2023-06-29T09:27:46.020Z,4.82
2023-06-29T09:30:20.714Z,4.32
2023-06-29T09:32:49.549Z,4.15
2023-06-29T09:35:18.091Z,3.83
2023-06-29T09:37:47.450Z,4.27
2023-06-29T09:40:16.008Z,3.85
2023-06-29T09:42:46.092Z,4.07
2023-06-29T09:45:16.119Z,4.03
2023-06-29T09:50:25.908Z,4.17
2023-06-29T09:53:00.146Z,4.65
2023-06-29T09:55:34.084Z,4.30
2023-06-29T09:58:05.027Z,4.13
2023-06-29T10:00:34.485Z,4.38
2023-06-29T10:03:03.423Z,4.17
2023-06-29T10:05:33.145Z,4.40
2023-06-29T10:08:06.170Z,4.28
2023-06-29T10:10:39.476Z,4.60
2023-06-29T10:13:09.987Z,4.32
2023-06-29T10:15:40.289Z,4.47
2023-06-29T10:18:12.967Z,4.60
2023-06-29T10:20:45.029Z,4.45
2023-06-29T10:23:17.310Z,4.32
2023-06-29T10:26:06.876Z,4.22
2023-06-29T10:28:55.628Z,3.80
2023-06-29T10:31:34.109Z,4.20
2023-06-29T10:34:03.584Z,4.10
2023-06-29T10:36:47.616Z,3.90
2023-06-29T10:39:42.134Z,4.18
2023-06-29T10:42:14.999Z,4.50
2023-06-29T10:44:49.760Z,4.22
2023-06-29T10:47:28.851Z,4.57
2023-06-29T10:50:21.490Z,3.75
2023-06-29T10:52:50.824Z,4.03
2023-06-29T10:55:21.185Z,3.73
2023-06-29T10:57:54.210Z,4.15
2023-06-29T11:00:26.794Z,3.97
2023-06-29T11:02:56.366Z,3.70
2023-06-29T11:05:25.699Z,3.65
2023-06-29T11:07:54.980Z,3.77
2023-06-29T11:10:24.714Z,3.80
2023-06-29T11:12:55.686Z,3.72
2023-06-29T11:15:28.273Z,3.90
2023-06-29T11:17:56.796Z,4.00
2023-06-29T11:20:31.291Z,3.57
2023-06-29T11:23:00.646Z,3.80
2023-06-29T11:25:30.386Z,3.85
2023-06-29T11:28:00.191Z,4.15
2023-06-29T11:30:30.445Z,3.72
2023-06-29T11:32:59.057Z,4.00
2023-06-29T11:35:27.576Z,4.30
2023-06-29T11:38:02.197Z,4.35
2023-06-29T11:40:31.565Z,4.40
2023-06-29T11:43:00.158Z,4.05
2023-06-29T11:45:30.169Z,4.13
2023-06-29T11:47:59.148Z,4.85
2023-06-29T11:50:27.842Z,4.00
2023-06-29T11:52:58.975Z,4.05
2023-06-29T11:55:28.984Z,3.60
2023-06-29T11:57:57.620Z,4.10
2023-06-29T12:00:34.320Z,3.33
2023-06-29T12:03:10.570Z,3.50
2023-06-29T12:05:44.266Z,3.58
2023-06-29T12:08:13.088Z,3.85
2023-06-29T12:10:41.792Z,3.50
2023-06-29T12:13:12.774Z,3.60
2023-06-29T12:18:18.352Z,4.00
2023-06-29T12:20:50.415Z,4.03
2023-06-29T12:23:19.925Z,4.00
2023-06-29T12:25:51.269Z,4.03
2023-06-29T12:28:20.190Z,4.32
2023-06-29T12:30:50.110Z,4.10
2023-06-29T12:33:18.903Z,4.80
2023-06-29T12:35:47.681Z,4.60
2023-06-29T12:38:16.687Z,4.20
2023-06-29T12:40:45.158Z,4.15
2023-06-29T12:43:13.839Z,4.22
2023-06-29T12:45:42.624Z,4.03
2023-06-29T12:48:12.931Z,4.50
2023-06-29T12:50:41.457Z,4.38
2023-06-29T12:53:10.148Z,4.32
2023-06-29T12:55:38.684Z,4.43
2023-06-29T12:58:07.144Z,4.07
2023-06-29T13:00:36.874Z,3.80
2023-06-29T13:03:08.926Z,3.80
2023-06-29T13:05:39.031Z,3.90
2023-06-29T13:08:07.536Z,4.05
2023-06-29T13:10:36.173Z,4.10
2023-06-29T13:13:04.977Z,4.27
2023-06-29T13:15:33.822Z,4.28
2023-06-29T13:18:02.381Z,4.10
2023-06-29T13:20:31.080Z,4.50
2023-06-29T13:23:01.676Z,4.60
2023-06-29T13:25:30.266Z,4.43
2023-06-29T13:27:58.784Z,4.40
2023-06-29T13:30:27.372Z,4.57
2023-06-29T13:32:55.940Z,4.07
2023-06-29T13:35:24.592Z,4.13
2023-06-29T13:37:53.787Z,4.30
2023-06-29T13:40:23.837Z,4.07
2023-06-29T13:42:52.314Z,3.85
2023-06-29T13:45:21.238Z,3.80
2023-06-29T13:47:49.819Z,4.25
2023-06-29T13:50:22.635Z,4.00
2023-06-29T13:52:54.003Z,4.30
2023-06-29T13:55:24.501Z,4.47
2023-06-29T13:57:53.407Z,3.78
2023-06-29T14:00:23.934Z,4.30
2023-06-29T14:02:53.741Z,4.00
2023-06-29T14:05:22.662Z,4.15
2023-06-29T14:07:51.330Z,4.05
2023-06-29T14:10:19.932Z,4.35
2023-06-29T14:12:50.102Z,3.80
2023-06-29T14:15:18.694Z,4.30
2023-06-29T14:17:47.397Z,3.90
2023-06-29T14:20:15.965Z,4.15
2023-06-29T14:22:44.787Z,3.67
2023-06-29T14:25:13.277Z,4.35
2023-06-29T14:27:41.990Z,4.27
2023-06-29T14:30:14.066Z,4.30
2023-06-29T14:32:42.861Z,4.80
2023-06-29T14:35:11.585Z,4.70
2023-06-29T14:37:40.875Z,4.50
2023-06-29T14:40:11.989Z,4.67
2023-06-29T14:42:41.467Z,4.22
2023-06-29T14:45:13.237Z,4.90
2023-06-29T14:47:42.151Z,4.20
2023-06-29T14:50:11.757Z,4.70
2023-06-29T14:52:40.618Z,4.23
2023-06-29T14:55:09.759Z,4.57
2023-06-29T14:57:38.269Z,4.57
2023-06-29T15:00:09.793Z,4.90
2023-06-29T15:02:39.721Z,4.60
2023-06-29T15:05:09.313Z,4.33
2023-06-29T15:07:37.870Z,4.38
2023-06-29T15:10:07.814Z,5.00
2023-06-29T15:12:36.320Z,5.13
2023-06-29T15:15:05.565Z,5.40
2023-06-29T15:17:34.040Z,4.97
2023-06-29T15:20:04.520Z,4.53
2023-06-29T15:22:32.987Z,4.70
2023-06-29T15:25:01.477Z,5.53
2023-06-29T15:27:30.581Z,5.38
2023-06-29T15:29:59.128Z,5.30
2023-06-29T15:32:28.619Z,4.82
2023-06-29T15:34:57.226Z,5.80
2023-06-29T15:37:27.115Z,6.07
2023-06-29T15:39:55.623Z,5.38
2023-06-29T15:42:24.134Z,5.73
2023-06-29T15:44:52.609Z,6.88
2023-06-29T15:47:21.098Z,6.32
2023-06-29T15:49:49.593Z,8.18
2023-06-29T15:52:18.144Z,7.40
2023-06-29T15:54:48.110Z,7.10
2023-06-29T15:57:16.623Z,7.85
2023-06-29T15:59:45.162Z,8.90
2023-06-29T16:02:16.097Z,8.10
2023-06-29T16:04:44.715Z,8.60
2023-06-29T16:07:13.601Z,10.37
2023-06-29T16:09:42.145Z,10.00
2023-06-29T16:12:12.609Z,9.32
2023-06-29T16:14:41.105Z,8.45
2023-06-29T16:17:09.624Z,8.43
2023-06-29T16:19:38.186Z,8.10
2023-06-29T16:22:07.929Z,8.35
2023-06-29T16:24:36.638Z,7.38
2023-06-29T16:27:06.513Z,8.10
2023-06-29T16:29:36.390Z,8.73
2023-06-29T16:32:05.865Z,9.07
2023-06-29T16:34:34.480Z,10.63
2023-06-29T16:37:03.074Z,10.75
2023-06-29T16:39:31.660Z,10.05
2023-06-29T16:42:00.703Z,10.15
2023-06-29T16:44:29.282Z,9.47
2023-06-29T16:46:59.224Z,10.15
2023-06-29T16:49:28.366Z,11.80
2023-06-29T16:51:56.868Z,9.75
2023-06-29T16:54:25.452Z,10.38
2023-06-29T16:56:54.024Z,11.20
2023-06-29T16:59:22.747Z,11.35
2023-06-29T17:01:51.447Z,10.13
2023-06-29T17:04:21.997Z,9.80
2023-06-29T17:06:50.546Z,10.70
2023-06-29T17:09:19.216Z,9.30
2023-06-29T17:11:47.743Z,9.10
2023-06-29T17:14:16.387Z,8.88
2023-06-29T17:16:44.972Z,8.18
2023-06-29T17:19:13.572Z,8.32
2023-06-29T17:21:43.438Z,8.27
2023-06-29T17:24:11.930Z,8.75
2023-06-29T17:26:40.439Z,7.68
2023-06-29T17:29:09.846Z,7.70
2023-06-29T17:31:38.867Z,7.60
2023-06-29T17:34:07.391Z,7.83
2023-06-29T17:36:36.198Z,6.78
2023-06-29T17:39:06.129Z,7.80
2023-06-29T17:41:34.796Z,6.90
2023-06-29T17:44:03.340Z,6.43
2023-06-29T17:46:32.785Z,6.90
2023-06-29T17:49:01.465Z,6.72
2023-06-29T17:51:30.309Z,6.70
2023-06-29T17:53:59.125Z,7.57
2023-06-29T17:56:29.241Z,6.50
2023-06-29T17:58:57.774Z,7.10
2023-06-29T18:01:26.344Z,7.10
2023-06-29T18:03:54.987Z,7.00
2023-06-29T18:06:23.730Z,6.63
2023-06-29T18:08:55.366Z,6.50
2023-06-29T18:11:23.923Z,6.90
2023-06-29T18:13:53.780Z,6.78
2023-06-29T18:16:22.393Z,6.78
2023-06-29T18:18:50.896Z,6.63
2023-06-29T18:21:19.432Z,6.82
2023-06-29T18:23:48.408Z,7.13
2023-06-29T18:26:17.937Z,6.55
2023-06-29T18:28:46.929Z,6.75
2023-06-29T18:31:17.214Z,6.53
2023-06-29T18:33:45.988Z,6.93
2023-06-29T18:36:14.636Z,6.77
2023-06-29T18:38:43.211Z,6.43
2023-06-29T18:41:31.211Z,6.85
2023-06-29T18:44:01.121Z,6.75
2023-06-29T18:46:33.079Z,6.75
2023-06-29T18:49:01.961Z,6.27
2023-06-29T18:51:30.467Z,6.20
2023-06-29T18:53:59.020Z,6.15
2023-06-29T18:56:27.918Z,6.57
2023-06-29T18:58:56.553Z,6.72
2023-06-29T19:01:25.100Z,6.67
2023-06-29T19:03:54.961Z,6.88
2023-06-29T19:06:23.457Z,6.55
2023-06-29T19:08:52.209Z,6.68
2023-06-29T19:11:21.213Z,6.68
2023-06-29T19:13:49.801Z,6.00
2023-06-29T19:16:19.180Z,6.32
2023-06-29T19:18:47.667Z,6.78
2023-06-29T19:21:20.755Z,6.30
2023-06-29T19:23:49.858Z,6.55
2023-06-29T19:26:18.870Z,6.37
2023-06-29T19:28:47.425Z,6.47
2023-06-29T19:31:16.583Z,7.03
2023-06-29T19:33:45.472Z,6.47
2023-06-29T19:36:13.991Z,6.68
2023-06-29T19:38:44.127Z,6.50
2023-06-29T19:41:12.757Z,6.85
2023-06-29T19:43:41.217Z,6.32
2023-06-29T19:46:09.891Z,6.10
2023-06-29T19:48:38.636Z,6.63
2023-06-29T19:51:07.612Z,6.20
2023-06-29T19:53:36.392Z,6.18
2023-06-29T19:56:07.329Z,6.20
2023-06-29T19:58:35.857Z,6.20
2023-06-29T20:01:04.462Z,6.28
2023-06-29T20:03:33.663Z,6.37
2023-06-29T20:06:02.422Z,6.50
2023-06-29T20:08:30.934Z,6.40
2023-06-29T20:10:59.470Z,6.47
2023-06-29T20:13:29.604Z,6.60
2023-06-29T20:15:58.104Z,5.97
2023-06-29T20:18:26.704Z,6.43
2023-06-29T20:20:55.440Z,6.20
2023-06-29T20:23:23.937Z,6.43
2023-06-29T20:25:52.399Z,6.28
2023-06-29T20:28:20.908Z,6.40
2023-06-29T20:30:51.031Z,6.25
2023-06-29T20:33:19.506Z,6.22
2023-06-29T20:35:48.397Z,6.53
2023-06-29T20:38:16.988Z,5.95
2023-06-29T20:40:45.596Z,6.03
2023-06-29T20:43:14.471Z,6.15
2023-06-29T20:45:44.760Z,6.45
2023-06-29T20:48:15.162Z,6.53
2023-06-29T20:50:43.904Z,6.72
2023-06-29T20:53:12.923Z,6.73
2023-06-29T20:55:41.414Z,6.32
2023-06-29T20:58:10.678Z,7.10
2023-06-29T21:00:39.896Z,6.80
2023-06-29T21:03:08.636Z,6.32
2023-06-29T21:05:38.514Z,6.13
2023-06-29T21:08:07.028Z,6.60
2023-06-29T21:10:35.604Z,6.63
2023-06-29T21:13:04.601Z,6.40
2023-06-29T21:15:33.446Z,6.22
2023-06-29T21:18:04.535Z,6.77
2023-06-29T21:20:35.987Z,6.43
2023-06-29T21:23:06.720Z,7.18
2023-06-29T21:25:35.994Z,7.45
2023-06-29T21:28:05.939Z,7.30
2023-06-29T21:30:37.796Z,7.13
2023-06-29T21:33:08.031Z,6.88
2023-06-29T21:35:37.463Z,6.40
2023-06-29T21:38:08.939Z,6.70
2023-06-29T21:40:37.448Z,7.10
2023-06-29T21:43:05.932Z,6.70
2023-06-29T21:45:34.474Z,6.90
2023-06-29T21:48:03.041Z,6.40
2023-06-29T21:50:33.867Z,6.78
2023-06-29T21:53:03.274Z,7.10
2023-06-29T21:55:33.415Z,6.87
2023-06-29T21:58:01.947Z,7.30
2023-06-29T22:00:30.948Z,6.85
2023-06-29T22:02:59.509Z,6.65
2023-06-29T22:05:28.888Z,6.80
2023-06-29T22:07:57.448Z,6.93
2023-06-29T22:10:26.640Z,6.90
2023-06-29T22:12:56.731Z,7.05
2023-06-29T22:15:25.259Z,6.95
2023-06-29T22:17:54.821Z,6.63
2023-06-29T22:20:24.185Z,7.17
2023-06-29T22:22:53.390Z,6.22
2023-06-29T22:25:22.184Z,7.18
2023-06-29T22:27:51.130Z,6.97
2023-06-29T22:30:21.233Z,7.25
2023-06-29T22:32:52.905Z,7.30
2023-06-29T22:35:22.063Z,7.18
2023-06-29T22:37:50.564Z,7.22
2023-06-29T22:40:19.183Z,7.25
2023-06-29T22:42:48.204Z,6.85
2023-06-29T22:45:16.812Z,7.50
2023-06-29T22:47:46.803Z,6.90
2023-06-29T22:50:15.454Z,8.20
2023-06-29T22:52:43.968Z,7.05
2023-06-29T22:55:12.476Z,6.75
2023-06-29T22:57:41.000Z,6.83
2023-06-29T23:00:11.928Z,6.45
2023-06-29T23:02:40.692Z,7.20
2023-06-29T23:05:11.969Z,7.15
2023-06-29T23:07:44.557Z,6.80
2023-06-29T23:10:14.503Z,7.20
2023-06-29T23:12:46.661Z,6.95
2023-06-29T23:15:15.506Z,7.30
2023-06-29T23:17:44.318Z,7.60
2023-06-29T23:20:14.816Z,7.25
2023-06-29T23:22:45.740Z,7.73
2023-06-29T23:25:14.772Z,7.93
2023-06-29T23:27:45.954Z,7.78
2023-06-29T23:30:16.838Z,7.60
2023-06-29T23:32:51.147Z,7.80
2023-06-29T23:35:21.989Z,7.30
2023-06-29T23:37:50.493Z,7.60
2023-06-29T23:40:19.512Z,7.28
2023-06-29T23:42:48.030Z,7.03
2023-06-29T23:45:17.749Z,7.13
2023-06-29T23:47:46.318Z,7.30
2023-06-29T23:50:15.008Z,7.32
2023-06-29T23:52:44.959Z,7.95
2023-06-29T23:55:13.886Z,7.40
2023-06-29T23:57:42.730Z,7.88
